Time;durP1;ratioP1;P1;durP2;ratioP2;P2;SDS_P1;SDS_P2;PMS_P1;PMS_P2;Temp;Humidity;BMP_temperature;BMP_pressure;BME280_temperature;BME280_humidity;BME280_pressure;Samples;Min_cycle;Max_cycle;Signal;HPM_P1;HPM_P2
2022/01/01 00:01:01;;;;;;;11.10;6.92;;;;;;;2.51;100.00;98455.97;1713031;83;21013;-68
2022/01/01 00:03:29;;;;;;;9.95;6.28;;;;;;;2.53;100.00;98450.23;1712211;83;21137;-68
2022/01/01 00:05:56;;;;;;;7.85;5.08;;;;;;;2.56;100.00;98444.20;1710861;83;21148;-68
2022/01/01 00:08:22;;;;;;;9.98;5.90;;;;;;;2.59;100.00;98447.73;1711645;83;21060;-68
2022/01/01 00:10:48;;;;;;;11.90;5.67;;;;;;;2.64;100.00;98444.13;1712253;83;21067;-69
2022/01/01 00:13:15;;;;;;;9.90;6.33;;;;;;;2.67;100.00;98444.34;1713069;83;21473;-65
2022/01/01 00:15:41;;;;;;;10.95;6.42;;;;;;;2.72;100.00;98438.56;1713210;83;21007;-68
2022/01/01 00:18:10;;;;;;;12.88;7.67;;;;;;;2.75;100.00;98442.05;1713529;83;21599;-68
2022/01/01 00:20:37;;;;;;;16.40;8.33;;;;;;;2.77;100.00;98437.95;1713035;83;20896;-67
2022/01/01 00:23:05;;;;;;;12.80;7.47;;;;;;;2.78;100.00;98431.95;1712569;83;20956;-67
2022/01/01 00:25:31;;;;;;;11.93;7.12;;;;;;;2.82;100.00;98431.61;1712371;83;21064;-68
2022/01/01 00:27:58;;;;;;;12.58;8.18;;;;;;;2.86;100.00;98428.56;1711923;83;21595;-67
2022/01/01 00:30:24;;;;;;;13.90;8.05;;;;;;;2.89;100.00;98426.61;1712165;83;20999;-69
2022/01/01 00:32:50;;;;;;;11.45;7.42;;;;;;;2.92;100.00;98426.56;1713340;83;21016;-69
2022/01/01 00:35:18;;;;;;;7.70;5.42;;;;;;;2.94;100.00;98424.90;1713088;83;21244;-66
2022/01/01 00:37:45;;;;;;;7.17;4.90;;;;;;;2.96;100.00;98417.25;1710766;83;21003;-66
2022/01/01 00:40:12;;;;;;;6.53;4.25;;;;;;;3.00;100.00;98418.30;1712105;83;21087;-69
2022/01/01 00:42:39;;;;;;;7.65;4.65;;;;;;;3.02;100.00;98414.16;1712271;83;22049;-68
2022/01/01 00:45:06;;;;;;;7.53;4.60;;;;;;;3.04;100.00;98407.87;1687715;83;22214;-69
2022/01/01 00:47:32;;;;;;;7.55;5.10;;;;;;;3.07;100.00;98405.66;1711743;83;21004;-70
2022/01/01 00:49:59;;;;;;;6.75;4.40;;;;;;;3.08;100.00;98404.55;1714435;83;21087;-67
2022/01/01 00:52:25;;;;;;;7.55;4.90;;;;;;;3.13;100.00;98401.74;1714338;83;20957;-68
2022/01/01 00:54:52;;;;;;;15.28;6.70;;;;;;;3.15;100.00;98404.44;1712071;83;21974;-69
2022/01/01 00:57:19;;;;;;;8.50;5.37;;;;;;;3.18;100.00;98396.76;1713250;82;21014;-68
2022/01/01 00:59:47;;;;;;;7.28;5.37;;;;;;;3.20;100.00;98400.00;1714398;83;20964;-68
2022/01/01 01:02:13;;;;;;;8.93;5.78;;;;;;;3.22;100.00;98392.34;1712941;83;21114;-65
2022/01/01 01:04:41;;;;;;;8.38;4.58;;;;;;;3.24;100.00;98388.78;1712110;83;21012;-67
2022/01/01 01:07:08;;;;;;;6.67;4.08;;;;;;;3.25;100.00;98383.03;1712340;83;21504;-68
2022/01/01 01:09:34;;;;;;;5.45;4.22;;;;;;;3.27;100.00;98383.55;1711031;83;21030;-69
2022/01/01 01:12:02;;;;;;;6.20;4.40;;;;;;;3.33;100.00;98391.59;1687587;83;21031;-67
2022/01/01 01:14:39;;;;;;;6.12;4.25;;;;;;;3.36;100.00;98384.22;1712983;83;21080;-68
2022/01/01 01:17:00;;;;;;;7.15;4.80;;;;;;;3.36;100.00;98383.64;1710174;83;20960;-68
2022/01/01 01:19:26;;;;;;;5.00;4.08;;;;;;;3.38;100.00;98378.70;1712615;83;21502;-68
2022/01/01 01:21:52;;;;;;;6.25;3.92;;;;;;;3.43;100.00;98371.56;1710672;83;21060;-67
2022/01/01 01:24:23;;;;;;;5.37;4.05;;;;;;;3.45;100.00;98369.33;1712801;83;21052;-67
2022/01/01 01:26:50;;;;;;;5.42;3.92;;;;;;;3.46;100.00;98370.96;1712817;83;21016;-67
2022/01/01 01:29:17;;;;;;;4.90;3.75;;;;;;;3.47;100.00;98370.66;1712856;83;21026;-68
2022/01/01 01:31:46;;;;;;;6.42;4.12;;;;;;;3.50;100.00;98365.15;1713103;83;21502;-66
2022/01/01 01:34:12;;;;;;;5.65;4.42;;;;;;;3.53;100.00;98365.93;1713359;82;21101;-67
2022/01/01 01:36:39;;;;;;;5.53;3.80;;;;;;;3.56;100.00;98366.69;1683487;83;21422;-66
2022/01/01 01:39:05;;;;;;;6.45;4.40;;;;;;;3.59;100.00;98358.45;1712015;83;20941;-68
2022/01/01 01:41:32;;;;;;;6.08;4.10;;;;;;;3.62;100.00;98351.84;1712406;83;21009;-68
2022/01/01 01:44:06;;;;;;;5.50;4.33;;;;;;;3.67;100.00;98344.70;1714364;83;21187;-65
2022/01/01 01:46:35;;;;;;;4.97;3.62;;;;;;;3.69;100.00;98345.18;1712802;83;21436;-68
2022/01/01 01:49:02;;;;;;;6.15;4.35;;;;;;;3.72;100.00;98350.05;1710676;83;20917;-68
2022/01/01 01:51:28;;;;;;;5.75;3.98;;;;;;;3.75;100.00;98342.62;1706742;83;21055;-69
2022/01/01 01:53:58;;;;;;;5.83;4.12;;;;;;;3.76;100.00;98334.69;1725735;82;21405;-68
2022/01/01 01:56:24;;;;;;;7.50;5.12;;;;;;;3.76;100.00;98336.88;1749314;81;21583;-68
2022/01/01 01:58:51;;;;;;;6.30;4.67;;;;;;;3.77;100.00;98333.59;1749347;81;21004;-68
2022/01/01 02:01:24;;;;;;;5.92;4.10;;;;;;;3.78;100.00;98328.39;1749847;80;21246;-68
2022/01/01 02:03:48;;;;;;;7.62;4.33;;;;;;;3.82;100.00;98334.05;1748453;81;20956;-67
2022/01/01 02:06:16;;;;;;;8.35;4.40;;;;;;;3.86;100.00;98329.58;1746482;81;21019;-69
2022/01/01 02:08:44;;;;;;;9.98;5.35;;;;;;;3.87;100.00;98322.46;1746479;81;21083;-66
2022/01/01 02:11:11;;;;;;;6.87;5.45;;;;;;;3.91;100.00;98327.33;1747877;81;20997;-66
2022/01/01 02:13:59;;;;;;;9.08;6.12;;;;;;;3.94;100.00;98322.63;1749117;80;21516;-69
2022/01/01 02:16:30;;;;;;;10.32;6.78;;;;;;;3.96;100.00;98323.13;1730719;82;21032;-68
2022/01/01 02:18:46;;;;;;;9.13;6.37;;;;;;;4.00;100.00;98322.20;1688836;83;20962;-66
2022/01/01 02:21:14;;;;;;;11.48;6.50;;;;;;;4.06;100.00;98322.10;1697262;84;21554;-68
2022/01/01 02:23:43;;;;;;;8.28;6.12;;;;;;;4.10;100.00;98321.72;1712716;83;20873;-67
2022/01/01 02:26:12;;;;;;;9.48;6.83;;;;;;;4.12;100.00;98317.59;1696462;84;21001;-68
2022/01/01 02:28:49;;;;;;;13.13;7.85;;;;;;;4.18;100.00;98313.39;1696819;84;21010;-68
2022/01/01 02:31:17;;;;;;;9.98;6.78;;;;;;;4.23;100.00;98316.01;1711583;83;20993;-64
2022/01/01 02:33:43;;;;;;;8.83;6.30;;;;;;;4.27;100.00;98315.63;1693814;84;21140;-68
2022/01/01 02:36:10;;;;;;;10.43;7.75;;;;;;;4.29;100.00;98315.31;1746554;81;21031;-68
2022/01/01 02:38:37;;;;;;;8.43;6.78;;;;;;;4.32;100.00;98320.15;1743235;81;21025;-68
2022/01/01 02:41:03;;;;;;;10.82;7.60;;;;;;;4.33;100.00;98310.30;1745410;81;20882;-68
2022/01/01 02:43:32;;;;;;;10.65;7.85;;;;;;;4.37;100.00;98312.67;1749409;81;20823;-66
2022/01/01 02:45:58;;;;;;;10.00;7.60;;;;;;;4.42;100.00;98310.95;1745878;81;21025;-68
2022/01/01 02:48:26;;;;;;;10.85;7.95;;;;;;;4.44;100.00;98314.97;1748222;81;20945;-71
2022/01/01 02:50:52;;;;;;;13.83;8.73;;;;;;;4.47;100.00;98310.83;1750801;81;20949;-68
2022/01/01 02:53:19;;;;;;;13.22;9.23;;;;;;;4.49;100.00;98301.76;1748764;81;21562;-68
2022/01/01 02:55:46;;;;;;;13.60;9.28;;;;;;;4.54;100.00;98306.31;1746727;81;20877;-66
2022/01/01 02:58:13;;;;;;;15.75;10.55;;;;;;;4.56;100.00;98314.97;1751546;81;21950;-67
2022/01/01 03:00:42;;;;;;;14.98;10.38;;;;;;;4.57;100.00;98306.47;1746733;81;20965;-68
2022/01/01 03:03:12;;;;;;;13.88;10.78;;;;;;;4.60;100.00;98304.52;1748555;81;21057;-69
2022/01/01 03:05:38;;;;;;;15.58;11.95;;;;;;;4.65;100.00;98302.21;1729187;81;21068;-65
2022/01/01 03:08:05;;;;;;;17.07;11.22;;;;;;;4.67;100.00;98305.98;1747874;80;21033;-69
2022/01/01 03:10:31;;;;;;;19.17;13.05;;;;;;;4.70;100.00;98306.18;1748084;81;21766;-67
2022/01/01 03:13:00;;;;;;;18.82;12.55;;;;;;;4.73;100.00;98304.19;1749270;80;20981;-69
2022/01/01 03:15:28;;;;;;;18.80;12.28;;;;;;;4.75;100.00;98305.23;1748297;81;20937;-69
2022/01/01 03:17:56;;;;;;;19.25;12.95;;;;;;;4.77;100.00;98300.83;1743712;81;21528;-66
2022/01/01 03:20:23;;;;;;;19.52;13.50;;;;;;;4.79;100.00;98299.42;1748063;81;21450;-68
2022/01/01 03:22:54;;;;;;;21.73;14.87;;;;;;;4.84;100.00;98300.66;1749508;81;21008;-67
2022/01/01 03:25:20;;;;;;;20.00;12.98;;;;;;;4.89;100.00;98301.63;1751234;80;21035;-67
2022/01/01 03:27:47;;;;;;;18.80;13.48;;;;;;;4.93;100.00;98301.27;1750010;81;20964;-69
2022/01/01 03:30:14;;;;;;;19.17;14.30;;;;;;;4.95;100.00;98301.74;1742514;81;21135;-67
2022/01/01 03:32:41;;;;;;;18.98;13.80;;;;;;;4.97;100.00;98309.06;1742862;81;20988;-68
2022/01/01 03:35:09;;;;;;;21.37;14.25;;;;;;;4.99;100.00;98310.38;1744107;81;21986;-69
2022/01/01 03:37:37;;;;;;;21.65;13.80;;;;;;;5.02;100.00;98302.66;1748269;81;20937;-69
2022/01/01 03:40:09;;;;;;;20.00;14.45;;;;;;;5.04;100.00;98311.35;1749157;81;20946;-67
2022/01/01 03:42:36;;;;;;;25.17;16.15;;;;;;;5.06;100.00;98317.31;1731527;81;20996;-66
2022/01/01 03:45:06;;;;;;;22.32;14.75;;;;;;;5.05;100.00;98307.52;1749972;81;21137;-71
2022/01/01 03:47:36;;;;;;;22.95;14.83;;;;;;;5.07;100.00;98316.18;1747495;81;21012;-66
2022/01/01 03:50:06;;;;;;;21.73;14.38;;;;;;;5.08;100.00;98315.87;1745825;81;20997;-69
2022/01/01 03:52:42;;;;;;;18.35;13.85;;;;;;;5.08;100.00;98314.50;1747402;81;20929;-70
2022/01/01 03:55:11;;;;;;;23.67;15.80;;;;;;;5.12;100.00;98309.22;1748412;81;21132;-68
2022/01/01 03:57:41;;;;;;;19.57;14.33;;;;;;;5.13;100.00;98308.67;1746373;81;21056;-68
2022/01/01 04:00:13;;;;;;;20.68;14.98;;;;;;;5.14;100.00;98307.55;1747232;81;21493;-68
2022/01/01 04:02:44;;;;;;;22.15;14.60;;;;;;;5.15;100.00;98313.27;1749842;81;20950;-68
2022/01/01 04:05:12;;;;;;;21.75;14.63;;;;;;;5.17;100.00;98326.06;1749807;81;21053;-66
2022/01/01 04:07:40;;;;;;;19.85;13.10;;;;;;;5.20;100.00;98322.70;1729738;81;21115;-69
2022/01/01 04:10:09;;;;;;;20.95;13.58;;;;;;;5.23;100.00;98326.16;1748822;81;21064;-68
2022/01/01 04:12:43;;;;;;;21.62;14.45;;;;;;;5.23;100.00;98330.26;1751335;81;21558;-67
2022/01/01 04:15:11;;;;;;;18.32;13.45;;;;;;;5.22;100.00;98328.66;1748552;81;21509;-68
2022/01/01 04:17:41;;;;;;;18.65;13.15;;;;;;;5.23;100.00;98332.44;1744282;81;21054;-66
2022/01/01 04:20:10;;;;;;;16.87;12.28;;;;;;;5.24;100.00;98342.23;1753361;81;21068;-66
2022/01/01 04:22:36;;;;;;;19.30;13.25;;;;;;;5.24;100.00;98340.05;1748568;81;21039;-70
2022/01/01 04:25:05;;;;;;;22.50;13.53;;;;;;;5.21;100.00;98346.14;1746895;81;21197;-68
2022/01/01 04:27:33;;;;;;;16.30;12.47;;;;;;;5.20;100.00;98342.59;1744990;81;20929;-68
2022/01/01 04:30:01;;;;;;;20.55;13.58;;;;;;;5.23;100.00;98342.55;1751031;81;21032;-64
2022/01/01 04:32:27;;;;;;;19.48;14.13;;;;;;;5.24;100.00;98345.52;1745448;81;21114;-68
2022/01/01 04:34:53;;;;;;;16.82;12.63;;;;;;;5.26;100.00;98343.84;1744422;81;20982;-69
2022/01/01 04:37:21;;;;;;;20.90;13.35;;;;;;;5.26;100.00;98346.02;1747160;81;21458;-68
2022/01/01 04:39:59;;;;;;;18.90;11.60;;;;;;;5.29;100.00;98341.87;1711151;83;20873;-67
2022/01/01 04:42:26;;;;;;;17.27;12.95;;;;;;;5.33;100.00;98335.45;1665043;84;21065;-67
2022/01/01 04:44:54;;;;;;;17.57;10.72;;;;;;;5.36;100.00;98333.45;1747802;81;20888;-68
2022/01/01 04:47:22;;;;;;;15.65;11.65;;;;;;;5.39;100.00;98338.84;1749613;81;20906;-69
2022/01/01 04:49:49;;;;;;;16.25;11.38;;;;;;;5.43;100.00;98339.02;1746484;81;21125;-67
2022/01/01 04:52:16;;;;;;;18.27;11.57;;;;;;;5.46;100.00;98337.83;1747145;81;20905;-68
2022/01/01 04:54:46;;;;;;;16.23;11.55;;;;;;;5.51;100.00;98336.88;1749328;81;20945;-68
2022/01/01 04:57:12;;;;;;;17.12;11.43;;;;;;;5.52;100.00;98335.78;1744544;81;20982;-68
2022/01/01 04:59:41;;;;;;;14.75;10.68;;;;;;;5.56;100.00;98334.59;1748091;81;20979;-67
2022/01/01 05:02:08;;;;;;;17.92;10.70;;;;;;;5.57;100.00;98337.00;1744604;81;22082;-70
2022/01/01 05:04:38;;;;;;;13.65;9.65;;;;;;;5.58;100.00;98350.91;1745910;81;21035;-68
2022/01/01 05:07:07;;;;;;;15.08;9.78;;;;;;;5.61;100.00;98344.02;1745992;81;20932;-68
2022/01/01 05:09:33;;;;;;;13.98;9.40;;;;;;;5.64;100.00;98352.13;1752772;81;20961;-68
2022/01/01 05:12:00;;;;;;;13.30;9.18;;;;;;;5.66;100.00;98354.81;1746493;81;20981;-68
2022/01/01 05:14:29;;;;;;;13.05;9.28;;;;;;;5.67;100.00;98354.23;1756395;81;21014;-68
2022/01/01 05:16:56;;;;;;;14.95;10.20;;;;;;;5.69;100.00;98357.45;1745768;81;20948;-67
2022/01/01 05:19:23;;;;;;;11.48;8.00;;;;;;;5.66;100.00;98364.38;1744297;81;21457;-69
2022/01/01 05:21:50;;;;;;;12.55;8.80;;;;;;;5.65;100.00;98374.23;1749690;81;21804;-66
2022/01/01 05:24:18;;;;;;;21.05;9.88;;;;;;;5.63;100.00;98379.23;1745545;81;21096;-67
2022/01/01 05:26:45;;;;;;;19.37;10.50;;;;;;;5.60;100.00;98378.73;1750420;81;21527;-66
2022/01/01 05:29:13;;;;;;;19.30;9.38;;;;;;;5.58;100.00;98386.98;1744966;81;21022;-68
2022/01/01 05:31:39;;;;;;;13.95;8.85;;;;;;;5.57;100.00;98386.20;1744378;81;20999;-68
2022/01/01 05:34:05;;;;;;;13.78;8.05;;;;;;;5.57;100.00;98394.39;1746248;81;20989;-70
2022/01/01 05:36:34;;;;;;;12.78;8.18;;;;;;;5.60;100.00;98397.05;1748642;80;21040;-68
2022/01/01 05:39:03;;;;;;;10.35;6.87;;;;;;;5.58;100.00;98397.36;1746730;81;20916;-68
2022/01/01 05:41:29;;;;;;;11.30;5.92;;;;;;;5.58;100.00;98399.28;1744586;81;21031;-66
2022/01/01 05:43:58;;;;;;;8.60;6.05;;;;;;;5.60;100.00;98401.95;1748613;81;20993;-68
2022/01/01 05:46:25;;;;;;;12.05;7.03;;;;;;;5.62;100.00;98407.66;1751203;81;21149;-67
2022/01/01 05:48:51;;;;;;;8.90;6.35;;;;;;;5.61;100.00;98400.05;1736957;81;21048;-67
2022/01/01 05:51:18;;;;;;;9.48;5.50;;;;;;;5.58;100.00;98408.84;1747242;81;21504;-68
2022/01/01 05:53:44;;;;;;;8.33;5.83;;;;;;;5.57;100.00;98412.16;1733674;81;20952;-64
2022/01/01 05:56:12;;;;;;;8.65;4.78;;;;;;;5.57;100.00;98421.72;1748892;81;20977;-67
2022/01/01 05:58:39;;;;;;;5.72;4.20;;;;;;;5.59;100.00;98429.05;1746699;81;20955;-69
2022/01/01 06:01:06;;;;;;;4.87;4.12;;;;;;;5.59;100.00;98432.34;1742503;81;21406;-66
2022/01/01 06:03:33;;;;;;;4.40;3.40;;;;;;;5.60;100.00;98440.77;1749865;81;21949;-66
2022/01/01 06:05:59;;;;;;;4.62;4.12;;;;;;;5.60;100.00;98441.59;1750011;81;21530;-67
2022/01/01 06:08:28;;;;;;;6.28;3.45;;;;;;;5.57;100.00;98451.78;1747852;81;20993;-67
2022/01/01 06:10:55;;;;;;;5.50;3.75;;;;;;;5.57;100.00;98459.17;1745981;81;20981;-67
2022/01/01 06:13:22;;;;;;;5.95;3.20;;;;;;;5.56;100.00;98464.39;1743941;81;21471;-67
2022/01/01 06:15:50;;;;;;;4.12;3.20;;;;;;;5.56;100.00;98467.13;1750842;81;21075;-67
2022/01/01 06:18:16;;;;;;;4.53;3.00;;;;;;;5.56;100.00;98475.33;1745619;81;21024;-68
2022/01/01 06:20:45;;;;;;;5.55;3.15;;;;;;;5.56;100.00;98475.33;1744561;81;21046;-65
2022/01/01 06:23:12;;;;;;;4.80;3.60;;;;;;;5.57;100.00;98483.77;1750242;81;20994;-68
2022/01/01 06:25:39;;;;;;;3.70;3.20;;;;;;;5.54;100.00;98485.75;1749755;81;20965;-68
2022/01/01 06:28:05;;;;;;;3.70;2.90;;;;;;;5.53;100.00;98488.22;1748689;81;21493;-67
2022/01/01 06:30:35;;;;;;;5.33;3.83;;;;;;;5.52;100.00;98497.00;1746904;81;20930;-68
2022/01/01 06:33:15;;;;;;;5.37;3.33;;;;;;;5.52;100.00;98498.37;1749399;81;20980;-66
2022/01/01 06:35:44;;;;;;;3.45;2.87;;;;;;;5.50;100.00;98509.34;1747023;80;21556;-68
2022/01/01 06:38:13;;;;;;;5.20;3.42;;;;;;;5.47;100.00;98512.97;1749119;81;20997;-63
2022/01/01 06:40:41;;;;;;;4.97;3.20;;;;;;;5.45;100.00;98525.31;1748847;81;21740;-67
2022/01/01 06:43:09;;;;;;;4.20;2.90;;;;;;;5.45;100.00;98527.49;1746271;81;21549;-66
2022/01/01 06:45:35;;;;;;;4.60;2.83;;;;;;;5.45;100.00;98530.78;1752371;81;20992;-68
2022/01/01 06:48:02;;;;;;;4.55;3.20;;;;;;;5.44;100.00;98529.17;1749378;81;21016;-68
2022/01/01 06:50:29;;;;;;;3.90;2.85;;;;;;;5.41;100.00;98543.46;1747069;81;20991;-67
2022/01/01 06:52:55;;;;;;;3.62;2.70;;;;;;;5.36;100.00;98545.73;1747183;81;21481;-68
2022/01/01 06:55:22;;;;;;;4.42;3.45;;;;;;;5.37;100.00;98552.83;1744432;81;21037;-68
2022/01/01 06:57:48;;;;;;;3.00;2.37;;;;;;;5.34;100.00;98559.70;1744496;81;21100;-67
2022/01/01 07:00:16;;;;;;;2.45;2.08;;;;;;;5.32;100.00;98553.73;1740781;81;20987;-67
2022/01/01 07:02:46;;;;;;;3.12;2.65;;;;;;;5.31;100.00;98560.87;1745243;81;20949;-68
2022/01/01 07:05:13;;;;;;;4.08;2.70;;;;;;;5.32;100.00;98571.48;1746050;81;21079;-68
2022/01/01 07:07:41;;;;;;;3.35;2.05;;;;;;;5.32;100.00;98574.80;1753837;81;20961;-66
2022/01/01 07:10:11;;;;;;;3.00;1.70;;;;;;;5.30;100.00;98581.94;1744487;81;21059;-69
2022/01/01 07:12:39;;;;;;;1.72;1.40;;;;;;;5.27;100.00;98582.53;1748390;81;20964;-67
2022/01/01 07:15:08;;;;;;;2.17;1.77;;;;;;;5.26;100.00;98577.38;1751101;81;21050;-69
2022/01/01 07:17:35;;;;;;;2.33;1.98;;;;;;;5.25;100.00;98579.32;1748032;81;22009;-69
2022/01/01 07:20:02;;;;;;;2.80;1.98;;;;;;;5.23;100.00;98584.27;1748203;81;21529;-68
2022/01/01 07:22:30;;;;;;;3.50;2.30;;;;;;;5.22;100.00;98585.40;1745206;81;20892;-67
2022/01/01 07:24:58;;;;;;;2.42;2.02;;;;;;;5.20;100.00;98588.41;1728521;81;20960;-68
2022/01/01 07:27:24;;;;;;;2.87;2.00;;;;;;;5.18;100.00;98598.05;1743896;81;20929;-63
2022/01/01 07:29:51;;;;;;;2.75;1.75;;;;;;;5.16;100.00;98596.17;1745551;81;21725;-68
2022/01/01 07:32:19;;;;;;;3.12;1.80;;;;;;;5.15;100.00;98606.30;1750278;81;20926;-67
2022/01/01 07:34:45;;;;;;;2.40;1.80;;;;;;;5.13;100.00;98612.63;1747615;81;21402;-65
2022/01/01 07:37:12;;;;;;;3.00;1.92;;;;;;;5.13;100.00;98612.63;1748022;81;21457;-66
2022/01/01 07:39:38;;;;;;;2.27;1.62;;;;;;;5.13;100.00;98613.98;1745916;81;21031;-68
2022/01/01 07:42:06;;;;;;;2.37;1.65;;;;;;;5.11;100.00;98613.48;1745852;81;21138;-67
2022/01/01 07:44:33;;;;;;;2.58;1.65;;;;;;;5.10;100.00;98611.30;1745963;81;21170;-69
2022/01/01 07:47:01;;;;;;;2.70;1.70;;;;;;;5.09;100.00;98613.78;1751543;81;21076;-66
2022/01/01 07:49:31;;;;;;;1.72;1.40;;;;;;;5.08;100.00;98615.46;1747472;81;21490;-66
2022/01/01 07:51:57;;;;;;;2.50;1.17;;;;;;;5.05;100.00;98615.50;1748431;81;20989;-68
2022/01/01 07:54:24;;;;;;;3.10;1.50;;;;;;;5.02;100.00;98605.73;1747832;81;21041;-68
2022/01/01 07:56:54;;;;;;;4.28;2.67;;;;;;;5.03;100.00;98614.20;1746945;81;20953;-68
2022/01/01 07:59:20;;;;;;;12.25;7.62;;;;;;;5.00;100.00;98610.14;1751923;81;21027;-67
2022/01/01 08:01:48;;;;;;;13.75;9.28;;;;;;;4.98;100.00;98610.45;1745097;81;20985;-68
2022/01/01 08:04:15;;;;;;;17.85;11.12;;;;;;;4.98;100.00;98613.76;1747504;81;20830;-67
2022/01/01 08:06:43;;;;;;;17.73;10.32;;;;;;;4.99;100.00;98618.09;1728511;82;21485;-67
2022/01/01 08:09:10;;;;;;;16.40;9.85;;;;;;;5.01;100.00;98609.59;1745785;81;21044;-67
2022/01/01 08:11:38;;;;;;;14.95;9.75;;;;;;;5.04;100.00;98619.91;1748725;81;21048;-68
2022/01/01 08:14:05;;;;;;;15.25;10.65;;;;;;;5.08;100.00;98618.98;1747476;81;20932;-67
2022/01/01 08:16:33;;;;;;;14.03;8.85;;;;;;;5.11;100.00;98624.41;1752175;81;21006;-67
2022/01/01 08:19:01;;;;;;;10.05;6.20;;;;;;;5.14;100.00;98629.25;1722136;82;20969;-65
2022/01/01 08:21:27;;;;;;;4.97;3.42;;;;;;;5.18;100.00;98629.45;1753259;81;21450;-64
2022/01/01 08:23:55;;;;;;;2.85;1.62;;;;;;;5.19;100.00;98633.78;1749256;81;20837;-67
2022/01/01 08:26:21;;;;;;;2.90;1.57;;;;;;;5.19;100.00;98633.78;1745181;81;21526;-68
2022/01/01 08:28:49;;;;;;;2.30;1.40;;;;;;;5.19;100.00;98629.69;1747828;81;20921;-66
2022/01/01 08:31:17;;;;;;;3.37;1.70;;;;;;;5.21;100.00;98632.94;1752135;81;21058;-68
2022/01/01 08:33:48;;;;;;;4.08;2.25;;;;;;;5.23;100.00;98630.16;1743027;80;20981;-65
2022/01/01 08:36:15;;;;;;;3.98;1.50;;;;;;;5.27;100.00;98634.43;1749063;81;21532;-65
2022/01/01 08:38:43;;;;;;;1.52;1.10;;;;;;;5.26;100.00;98639.66;1745533;81;20965;-68
2022/01/01 08:41:09;;;;;;;1.80;0.90;;;;;;;5.26;100.00;98634.19;1743316;81;21540;-66
2022/01/01 08:43:36;;;;;;;1.65;1.07;;;;;;;5.25;100.00;98640.78;1744486;81;21017;-65
2022/01/01 08:46:02;;;;;;;1.65;1.15;;;;;;;5.24;100.00;98643.24;1748949;81;20930;-68
2022/01/01 08:48:29;;;;;;;1.35;0.93;;;;;;;5.24;100.00;98644.61;1744131;81;21033;-68
2022/01/01 08:50:55;;;;;;;4.95;2.02;;;;;;;5.25;100.00;98642.14;1751195;81;20998;-69
2022/01/01 08:53:23;;;;;;;3.10;1.82;;;;;;;5.28;100.00;98644.26;1753129;81;21453;-68
2022/01/01 08:55:49;;;;;;;2.27;1.37;;;;;;;5.27;100.00;98650.81;1746817;81;21105;-67
2022/01/01 08:58:16;;;;;;;1.85;1.25;;;;;;;5.22;100.00;98647.64;1744700;81;20947;-68
2022/01/01 09:00:42;;;;;;;1.85;1.00;;;;;;;5.20;100.00;98646.34;1748189;81;21746;-67
2022/01/01 09:03:09;;;;;;;1.05;0.93;;;;;;;5.20;100.00;98653.17;1747372;81;21489;-68
2022/01/01 09:05:36;;;;;;;1.65;0.80;;;;;;;5.20;100.00;98650.45;1747850;81;20914;-67
2022/01/01 09:08:04;;;;;;;0.95;0.78;;;;;;;5.22;100.00;98646.86;1742976;81;21039;-67
2022/01/01 09:10:32;;;;;;;2.50;1.30;;;;;;;5.20;100.00;98651.23;1744338;81;20933;-68
2022/01/01 09:13:00;;;;;;;2.75;1.20;;;;;;;5.18;100.00;98662.23;1752049;81;20913;-68
2022/01/01 09:15:30;;;;;;;2.60;1.30;;;;;;;5.17;100.00;98665.50;1757059;81;21400;-67
2022/01/01 09:17:58;;;;;;;3.17;1.72;;;;;;;5.18;100.00;98670.42;1744007;81;21021;-68
2022/01/01 09:20:25;;;;;;;3.20;1.70;;;;;;;5.15;100.00;98665.57;1749020;81;21467;-65
2022/01/01 09:22:52;;;;;;;4.15;1.77;;;;;;;5.15;100.00;98664.20;1748878;81;21452;-67
2022/01/01 09:25:19;;;;;;;2.58;1.20;;;;;;;5.10;100.00;98667.28;1748975;81;21516;-66
2022/01/01 09:27:46;;;;;;;3.02;1.52;;;;;;;5.08;100.00;98672.23;1724723;81;21078;-66
2022/01/01 09:30:14;;;;;;;3.25;1.62;;;;;;;5.06;100.00;98670.38;1749990;81;21037;-68
2022/01/01 09:32:42;;;;;;;4.80;2.58;;;;;;;5.05;100.00;98672.84;1751681;81;21528;-67
2022/01/01 09:35:09;;;;;;;2.95;1.60;;;;;;;5.07;100.00;98667.08;1738580;81;21055;-68
2022/01/01 09:37:35;;;;;;;2.85;1.85;;;;;;;5.07;100.00;98666.53;1742492;81;20909;-66
2022/01/01 09:40:03;;;;;;;3.52;1.92;;;;;;;5.09;100.00;98670.31;1748808;81;20977;-67
2022/01/01 09:42:31;;;;;;;3.62;2.25;;;;;;;5.06;100.00;98662.19;1749503;81;20937;-69
2022/01/01 09:44:59;;;;;;;6.37;2.30;;;;;;;5.05;100.00;98667.38;1749958;81;20928;-69
2022/01/01 09:47:26;;;;;;;7.75;3.27;;;;;;;5.07;100.00;98673.35;1745641;81;21406;-70
2022/01/01 09:49:52;;;;;;;3.17;1.00;;;;;;;5.10;100.00;98685.61;1745833;81;20901;-69
2022/01/01 09:52:21;;;;;;;1.02;0.85;;;;;;;5.08;100.00;98685.09;1747233;81;21214;-69
2022/01/01 09:54:51;;;;;;;3.02;1.40;;;;;;;5.08;100.00;98687.25;1749833;80;21531;-69
2022/01/01 09:57:21;;;;;;;1.60;1.05;;;;;;;5.08;100.00;98679.06;1748131;81;21576;-66
2022/01/01 09:59:47;;;;;;;1.20;1.00;;;;;;;5.08;100.00;98685.88;1731170;80;21327;-67
2022/01/01 10:02:14;;;;;;;2.42;1.27;;;;;;;5.09;100.00;98679.88;1747590;81;21036;-67
2022/01/01 10:04:54;;;;;;;3.22;1.52;;;;;;;5.06;100.00;98681.31;1748712;81;21456;-67
2022/01/01 10:07:31;;;;;;;2.45;1.20;;;;;;;5.05;100.00;98681.03;1746028;81;21045;-68
2022/01/01 10:10:03;;;;;;;5.37;1.80;;;;;;;5.08;100.00;98685.09;1749959;81;21782;-67
2022/01/01 10:12:41;;;;;;;4.17;1.37;;;;;;;5.09;100.00;98679.33;1720709;81;21039;-64
2022/01/01 10:15:11;;;;;;;2.60;1.05;;;;;;;5.09;100.00;98676.59;1745474;81;21072;-67
2022/01/01 10:17:44;;;;;;;1.62;0.70;;;;;;;5.10;100.00;98672.74;1749322;80;21549;-69
2022/01/01 10:20:11;;;;;;;2.12;0.98;;;;;;;5.10;100.00;98678.78;1728231;82;21055;-68
2022/01/01 10:22:39;;;;;;;3.87;1.00;;;;;;;5.09;100.00;98677.96;1745307;81;21178;-68
2022/01/01 10:28:03;;;;;;;3.15;1.37;;;;;;;5.10;100.00;98678.78;1746294;81;21016;-65
2022/01/01 10:30:43;;;;;;;2.05;1.15;;;;;;;5.07;100.00;98673.91;1744391;81;26654;-69
2022/01/01 10:33:14;;;;;;;3.70;1.30;;;;;;;5.04;100.00;98683.52;1749567;81;21044;-69
2022/01/01 10:35:53;;;;;;;5.67;1.42;;;;;;;5.04;100.00;98680.80;1747912;81;21921;-69
2022/01/01 10:38:26;;;;;;;4.20;1.50;;;;;;;5.05;100.00;98685.71;1748506;81;21053;-70
2022/01/01 10:41:08;;;;;;;3.20;1.05;;;;;;;5.04;100.00;98682.16;1746460;81;21104;-66
2022/01/01 10:43:38;;;;;;;5.33;2.12;;;;;;;5.08;100.00;98682.36;1751727;81;20952;-68
2022/01/01 10:46:13;;;;;;;4.20;2.05;;;;;;;5.12;100.00;98680.63;1748419;81;21437;-69
2022/01/01 10:51:24;;;;;;;4.53;1.45;;;;;;;5.15;100.00;98691.52;1745811;81;20145;-68
2022/01/01 10:54:05;;;;;;;2.77;1.40;;;;;;;5.14;100.00;98692.61;1751117;81;20988;-70
2022/01/01 10:59:41;;;;;;;2.12;1.05;;;;;;;5.11;100.00;98704.42;1741082;81;20946;-70
2022/01/01 11:02:09;;;;;;;4.85;1.85;;;;;;;5.10;100.00;98700.63;1745254;81;21056;-68
2022/01/01 11:04:36;;;;;;;1.87;1.50;;;;;;;5.10;100.00;98694.59;1703764;81;21116;-69
2022/01/01 11:07:06;;;;;;;2.05;1.20;;;;;;;5.12;100.00;98698.38;1739780;81;20965;-69
2022/01/01 11:09:33;;;;;;;5.62;1.00;;;;;;;5.14;100.00;98698.08;1747123;81;20973;-69
2022/01/01 11:12:03;;;;;;;2.80;1.32;;;;;;;5.15;100.00;98699.16;1747214;81;21041;-64
2022/01/01 11:14:32;;;;;;;3.27;1.52;;;;;;;5.17;100.00;98699.64;1750003;81;21944;-68
2022/01/01 11:17:03;;;;;;;3.62;1.35;;;;;;;5.15;100.00;98701.08;1746435;81;21812;-69
2022/01/01 11:19:29;;;;;;;3.25;1.40;;;;;;;5.17;100.00;98701.02;1746465;81;22138;-70
2022/01/01 11:21:58;;;;;;;4.60;1.65;;;;;;;5.20;100.00;98704.49;1745430;81;21005;-70
2022/01/01 11:24:25;;;;;;;3.08;1.55;;;;;;;5.26;100.00;98695.66;1749747;81;20984;-67
2022/01/01 11:26:53;;;;;;;3.45;1.55;;;;;;;5.30;100.00;98698.59;1746122;81;21195;-67
2022/01/01 11:29:19;;;;;;;5.03;2.92;;;;;;;5.32;100.00;98695.79;1748324;81;20995;-69
2022/01/01 11:31:49;;;;;;;7.28;2.72;;;;;;;5.35;100.00;98697.94;1750952;81;21477;-69
2022/01/01 11:34:20;;;;;;;8.83;3.30;;;;;;;5.38;100.00;98706.61;1730467;82;21048;-68
2022/01/01 11:36:47;;;;;;;3.77;2.17;;;;;;;5.38;100.00;98695.69;1746047;81;20948;-72
2022/01/01 11:39:14;;;;;;;6.35;2.92;;;;;;;5.38;100.00;98697.87;1745839;81;21949;-68
2022/01/01 11:41:45;;;;;;;6.67;2.80;;;;;;;5.42;100.00;98694.79;1744248;81;20989;-69